EDDP Airport Information

Runway Information
Runway 08L Length 11811 ft width 148 ft
Elevation 418 ft Threshold 0 ft Heading 86
Runway 26R Length 11811 ft Width 148 ft
Elevation 448 ft Threshold 0 ft Heading 266
Runway 08R Length 11811 ft width 198 ft
Elevation 0 ft Threshold 0 ft Heading 86
Runway 26L Length 11811 ft Width 198 ft
Elevation 0 ft Threshold 0 ft Heading 266
Airport Frequencies
Type APP Name MUNCHEN RA Frequency 124.175 MHZ
Type ATIS Name ATIS Frequency 123.95 MHZ
Type GND Name GND Frequency 121.8 MHZ
Type INFO Name MUNCHEN IN Frequency 125.8 MHZ
Type TWR Name TWR Frequency 121.1 MHZ
Airport Navaids
Type DME Name Leipzig South Frequency 112150 KHZ
Type VOR-DME Name Leipzig Frequency 115850 KHZ
Type DME Name Leipzig North Frequency 113500 KHZ
Type NDB Name Leipzig Frequency 357 KHZ
Type NDB Name Leipzig Frequency 434 KHZ
Type NDB Name Leipzig Frequency 340 KHZ
Airport Weather Information & NOTAM
ADDS - METARS form results

(2204 UTC 17 November 2018)
Data provider http://aviationweather.gov/metar/data/
 
METAR text: EDDP 172150Z 08008KT CAVOK M01/M03 Q1034 NOSIG
Conditions at: EDDP (LEIPZIG/SCHKEUDI, DE) observed 2150 UTC 17 November 2018
Temperature: -1.0°C (30°F)
Dewpoint: -3.0°C (27°F) [RH = 86%]
Pressure (altimeter): 30.53 inches Hg (1034.0 mb)
Winds: from the E (80 degrees) at 9 MPH (8 knots; 4.1 m/s)
Visibility: 6 or more miles (10+ km)
Ceiling: ceiling and visibility are OK
Clouds: unknown
Weather: no significant weather observed at this time

METAR text: EDDP 172120Z 07011KT CAVOK M00/M03 Q1034 NOSIG
Conditions at: EDDP (LEIPZIG/SCHKEUDI, DE) observed 2120 UTC 17 November 2018
Temperature: 0.0°C (32°F)
Dewpoint: -3.0°C (27°F) [RH = 80%]
Pressure (altimeter): 30.53 inches Hg (1034.0 mb)
Winds: from the ENE (70 degrees) at 13 MPH (11 knots; 5.7 m/s)
Visibility: 6 or more miles (10+ km)
Ceiling: ceiling and visibility are OK
Clouds: unknown
Weather: no significant weather observed at this time

Forecast for: EDDP (LEIPZIG/SCHKEUDI, DE)
Text: TAF EDDP 171700Z 1718/1818 05007KT 8000 NSC
Forecast period: 1800 UTC 17 November 2018 to 0000 UTC 18 November 2018
Forecast type: FROM: standard forecast or significant change
Winds: from the NE (50 degrees) at 8 MPH (7 knots; 3.6 m/s)
Visibility: 5 miles (8 km)
Ceiling: unknown
Clouds: missing
Weather: no significant weather forecast for this period
Text: BECMG 1800/1803 4000 BR
Forecast period: 0000 to 0700 UTC 18 November 2018
Forecast type: BECOMING: Conditions expected to become as follows by 0300 UTC 18 November 2018
Winds: from the NE (50 degrees) at 8 MPH (7 knots; 3.6 m/s)
Visibility: 2.49 miles (4.01 km)
Ceiling: unknown
Clouds: missing
Weather: BR  (mist)
Text: BECMG 1807/1810 8000
Forecast period: 0700 to 1800 UTC 18 November 2018
Forecast type: BECOMING: Conditions expected to become as follows by 1000 UTC 18 November 2018
Winds: from the NE (50 degrees) at 8 MPH (7 knots; 3.6 m/s)
Visibility: 5 miles (8 km)
Ceiling: unknown
Clouds: missing
Weather: BR  (mist)